sensor_id;sensor_type;location;lat;lon;timestamp;P1;durP1;ratioP1;P2;durP2;ratioP2
64595;SDS011;51003;51.628;6.670;2023-04-20T00:01:56;4.57;;;3.67;;
64595;SDS011;51003;51.628;6.670;2023-04-20T00:04:26;7.70;;;3.57;;
64595;SDS011;51003;51.628;6.670;2023-04-20T00:06:52;3.83;;;3.43;;
64595;SDS011;51003;51.628;6.670;2023-04-20T00:09:18;5.20;;;2.90;;
64595;SDS011;51003;51.628;6.670;2023-04-20T00:11:43;4.20;;;3.23;;
64595;SDS011;51003;51.628;6.670;2023-04-20T00:14:09;4.93;;;3.50;;
64595;SDS011;51003;51.628;6.670;2023-04-20T00:16:35;4.00;;;3.03;;
64595;SDS011;51003;51.628;6.670;2023-04-20T00:19:01;6.10;;;2.97;;
64595;SDS011;51003;51.628;6.670;2023-04-20T00:21:26;3.70;;;3.20;;
64595;SDS011;51003;51.628;6.670;2023-04-20T00:23:52;5.43;;;3.20;;
64595;SDS011;51003;51.628;6.670;2023-04-20T00:26:18;3.53;;;3.13;;
64595;SDS011;51003;51.628;6.670;2023-04-20T00:28:43;4.23;;;2.93;;
64595;SDS011;51003;51.628;6.670;2023-04-20T00:31:09;5.20;;;3.20;;
64595;SDS011;51003;51.628;6.670;2023-04-20T00:33:35;3.53;;;3.07;;
64595;SDS011;51003;51.628;6.670;2023-04-20T00:36:00;4.10;;;3.27;;
64595;SDS011;51003;51.628;6.670;2023-04-20T00:38:26;3.67;;;2.73;;
64595;SDS011;51003;51.628;6.670;2023-04-20T00:40:53;6.30;;;3.00;;
64595;SDS011;51003;51.628;6.670;2023-04-20T00:43:19;6.60;;;3.43;;
64595;SDS011;51003;51.628;6.670;2023-04-20T00:45:45;4.70;;;3.13;;
64595;SDS011;51003;51.628;6.670;2023-04-20T00:48:11;5.07;;;3.63;;
64595;SDS011;51003;51.628;6.670;2023-04-20T00:50:37;4.23;;;3.17;;
64595;SDS011;51003;51.628;6.670;2023-04-20T00:53:03;6.30;;;3.30;;
64595;SDS011;51003;51.628;6.670;2023-04-20T00:55:30;3.70;;;2.83;;
64595;SDS011;51003;51.628;6.670;2023-04-20T00:57:56;3.27;;;2.97;;
64595;SDS011;51003;51.628;6.670;2023-04-20T01:00:22;6.60;;;2.90;;
64595;SDS011;51003;51.628;6.670;2023-04-20T01:02:48;3.47;;;3.20;;
64595;SDS011;51003;51.628;6.670;2023-04-20T01:05:13;5.93;;;2.83;;
64595;SDS011;51003;51.628;6.670;2023-04-20T01:07:39;3.53;;;3.07;;
64595;SDS011;51003;51.628;6.670;2023-04-20T01:10:05;5.93;;;2.80;;
64595;SDS011;51003;51.628;6.670;2023-04-20T01:12:33;3.63;;;3.03;;
64595;SDS011;51003;51.628;6.670;2023-04-20T01:14:59;10.10;;;3.00;;
64595;SDS011;51003;51.628;6.670;2023-04-20T01:17:26;3.00;;;2.70;;
64595;SDS011;51003;51.628;6.670;2023-04-20T01:19:51;2.90;;;2.70;;
64595;SDS011;51003;51.628;6.670;2023-04-20T01:22:18;3.10;;;2.80;;
64595;SDS011;51003;51.628;6.670;2023-04-20T01:24:45;3.40;;;2.63;;
64595;SDS011;51003;51.628;6.670;2023-04-20T01:27:10;9.13;;;3.00;;
64595;SDS011;51003;51.628;6.670;2023-04-20T01:29:37;3.67;;;3.10;;
64595;SDS011;51003;51.628;6.670;2023-04-20T01:32:04;3.30;;;3.00;;
64595;SDS011;51003;51.628;6.670;2023-04-20T01:34:29;3.80;;;3.03;;
64595;SDS011;51003;51.628;6.670;2023-04-20T01:36:55;3.97;;;2.93;;
64595;SDS011;51003;51.628;6.670;2023-04-20T01:39:20;5.53;;;3.23;;
64595;SDS011;51003;51.628;6.670;2023-04-20T01:41:46;3.17;;;2.87;;
64595;SDS011;51003;51.628;6.670;2023-04-20T01:44:11;8.30;;;3.30;;
64595;SDS011;51003;51.628;6.670;2023-04-20T01:46:37;5.33;;;3.00;;
64595;SDS011;51003;51.628;6.670;2023-04-20T01:49:04;4.93;;;3.20;;
64595;SDS011;51003;51.628;6.670;2023-04-20T01:51:29;3.70;;;2.97;;
64595;SDS011;51003;51.628;6.670;2023-04-20T01:53:57;3.17;;;2.87;;
64595;SDS011;51003;51.628;6.670;2023-04-20T01:56:23;5.30;;;3.07;;
64595;SDS011;51003;51.628;6.670;2023-04-20T01:58:49;5.83;;;3.10;;
64595;SDS011;51003;51.628;6.670;2023-04-20T02:01:15;3.40;;;3.10;;
64595;SDS011;51003;51.628;6.670;2023-04-20T02:03:40;3.30;;;3.00;;
64595;SDS011;51003;51.628;6.670;2023-04-20T02:06:06;3.40;;;2.80;;
64595;SDS011;51003;51.628;6.670;2023-04-20T02:08:32;4.00;;;3.40;;
64595;SDS011;51003;51.628;6.670;2023-04-20T02:10:57;7.30;;;2.77;;
64595;SDS011;51003;51.628;6.670;2023-04-20T02:13:23;5.33;;;2.80;;
64595;SDS011;51003;51.628;6.670;2023-04-20T02:15:49;4.50;;;3.00;;
64595;SDS011;51003;51.628;6.670;2023-04-20T02:18:15;3.83;;;3.10;;
64595;SDS011;51003;51.628;6.670;2023-04-20T02:20:41;3.50;;;2.97;;
64595;SDS011;51003;51.628;6.670;2023-04-20T02:23:07;3.63;;;2.80;;
64595;SDS011;51003;51.628;6.670;2023-04-20T02:25:33;4.07;;;2.97;;
64595;SDS011;51003;51.628;6.670;2023-04-20T02:27:59;4.50;;;2.43;;
64595;SDS011;51003;51.628;6.670;2023-04-20T02:30:25;6.93;;;2.90;;
64595;SDS011;51003;51.628;6.670;2023-04-20T02:32:50;5.50;;;3.10;;
64595;SDS011;51003;51.628;6.670;2023-04-20T02:35:16;4.90;;;2.80;;
64595;SDS011;51003;51.628;6.670;2023-04-20T02:37:42;3.57;;;3.23;;
64595;SDS011;51003;51.628;6.670;2023-04-20T02:40:08;4.40;;;3.10;;
64595;SDS011;51003;51.628;6.670;2023-04-20T02:42:34;5.63;;;3.30;;
64595;SDS011;51003;51.628;6.670;2023-04-20T02:45:00;3.97;;;2.87;;
64595;SDS011;51003;51.628;6.670;2023-04-20T02:47:26;3.30;;;2.97;;
64595;SDS011;51003;51.628;6.670;2023-04-20T02:49:52;4.53;;;3.27;;
64595;SDS011;51003;51.628;6.670;2023-04-20T02:52:18;4.23;;;3.23;;
64595;SDS011;51003;51.628;6.670;2023-04-20T02:54:44;6.33;;;3.60;;
64595;SDS011;51003;51.628;6.670;2023-04-20T02:57:09;4.87;;;3.10;;
64595;SDS011;51003;51.628;6.670;2023-04-20T02:59:35;3.80;;;2.83;;
64595;SDS011;51003;51.628;6.670;2023-04-20T03:02:02;4.03;;;2.93;;
64595;SDS011;51003;51.628;6.670;2023-04-20T03:04:28;8.37;;;2.93;;
64595;SDS011;51003;51.628;6.670;2023-04-20T03:06:54;7.50;;;3.47;;
64595;SDS011;51003;51.628;6.670;2023-04-20T03:09:21;5.70;;;3.17;;
64595;SDS011;51003;51.628;6.670;2023-04-20T03:11:47;6.90;;;3.40;;
64595;SDS011;51003;51.628;6.670;2023-04-20T03:14:13;9.70;;;2.77;;
64595;SDS011;51003;51.628;6.670;2023-04-20T03:16:39;11.33;;;3.73;;
64595;SDS011;51003;51.628;6.670;2023-04-20T03:19:05;4.70;;;3.30;;
64595;SDS011;51003;51.628;6.670;2023-04-20T03:21:30;7.63;;;3.70;;
64595;SDS011;51003;51.628;6.670;2023-04-20T03:23:57;5.90;;;3.50;;
64595;SDS011;51003;51.628;6.670;2023-04-20T03:26:23;5.87;;;3.37;;
64595;SDS011;51003;51.628;6.670;2023-04-20T03:28:48;5.20;;;3.20;;
64595;SDS011;51003;51.628;6.670;2023-04-20T03:31:14;5.10;;;3.57;;
64595;SDS011;51003;51.628;6.670;2023-04-20T03:33:40;4.50;;;3.30;;
64595;SDS011;51003;51.628;6.670;2023-04-20T03:36:06;5.40;;;3.53;;
64595;SDS011;51003;51.628;6.670;2023-04-20T03:38:31;5.87;;;3.73;;
64595;SDS011;51003;51.628;6.670;2023-04-20T03:40:57;11.93;;;4.10;;
64595;SDS011;51003;51.628;6.670;2023-04-20T03:43:22;5.43;;;3.53;;
64595;SDS011;51003;51.628;6.670;2023-04-20T03:45:48;15.53;;;3.70;;
64595;SDS011;51003;51.628;6.670;2023-04-20T03:48:14;6.03;;;3.70;;
64595;SDS011;51003;51.628;6.670;2023-04-20T03:50:40;4.60;;;3.50;;
64595;SDS011;51003;51.628;6.670;2023-04-20T03:53:06;7.50;;;3.70;;
64595;SDS011;51003;51.628;6.670;2023-04-20T03:55:31;4.07;;;3.43;;
64595;SDS011;51003;51.628;6.670;2023-04-20T03:57:57;4.70;;;3.80;;
64595;SDS011;51003;51.628;6.670;2023-04-20T04:00:23;4.87;;;3.60;;
64595;SDS011;51003;51.628;6.670;2023-04-20T04:02:49;8.20;;;3.40;;
64595;SDS011;51003;51.628;6.670;2023-04-20T04:05:15;5.87;;;4.00;;
64595;SDS011;51003;51.628;6.670;2023-04-20T04:07:40;2.80;;;2.50;;
64595;SDS011;51003;51.628;6.670;2023-04-20T04:10:06;9.43;;;3.67;;
64595;SDS011;51003;51.628;6.670;2023-04-20T04:12:32;8.20;;;4.67;;
64595;SDS011;51003;51.628;6.670;2023-04-20T04:14:57;17.90;;;3.70;;
64595;SDS011;51003;51.628;6.670;2023-04-20T04:17:23;12.60;;;3.30;;
64595;SDS011;51003;51.628;6.670;2023-04-20T04:19:48;5.40;;;3.50;;
64595;SDS011;51003;51.628;6.670;2023-04-20T04:22:14;7.87;;;3.33;;
64595;SDS011;51003;51.628;6.670;2023-04-20T04:24:40;3.60;;;3.30;;
64595;SDS011;51003;51.628;6.670;2023-04-20T04:27:06;4.20;;;3.27;;
64595;SDS011;51003;51.628;6.670;2023-04-20T04:29:32;2.60;;;2.40;;
64595;SDS011;51003;51.628;6.670;2023-04-20T04:32:02;2.93;;;2.63;;
64595;SDS011;51003;51.628;6.670;2023-04-20T04:34:29;3.63;;;2.70;;
64595;SDS011;51003;51.628;6.670;2023-04-20T04:36:55;2.70;;;2.47;;
64595;SDS011;51003;51.628;6.670;2023-04-20T04:39:21;5.10;;;3.03;;
64595;SDS011;51003;51.628;6.670;2023-04-20T04:41:46;4.40;;;2.70;;
64595;SDS011;51003;51.628;6.670;2023-04-20T04:44:12;3.47;;;2.53;;
64595;SDS011;51003;51.628;6.670;2023-04-20T04:46:40;4.50;;;2.70;;
64595;SDS011;51003;51.628;6.670;2023-04-20T04:49:07;4.30;;;3.30;;
64595;SDS011;51003;51.628;6.670;2023-04-20T04:51:33;5.50;;;3.10;;
64595;SDS011;51003;51.628;6.670;2023-04-20T04:53:59;6.90;;;3.00;;
64595;SDS011;51003;51.628;6.670;2023-04-20T04:56:24;6.90;;;2.80;;
64595;SDS011;51003;51.628;6.670;2023-04-20T04:58:50;3.80;;;2.50;;
64595;SDS011;51003;51.628;6.670;2023-04-20T05:01:16;4.20;;;2.77;;
64595;SDS011;51003;51.628;6.670;2023-04-20T05:03:41;4.93;;;2.80;;
64595;SDS011;51003;51.628;6.670;2023-04-20T05:06:07;4.47;;;3.00;;
64595;SDS011;51003;51.628;6.670;2023-04-20T05:08:36;2.97;;;2.67;;
64595;SDS011;51003;51.628;6.670;2023-04-20T05:11:01;5.40;;;3.33;;
64595;SDS011;51003;51.628;6.670;2023-04-20T05:13:27;3.90;;;2.87;;
64595;SDS011;51003;51.628;6.670;2023-04-20T05:15:53;6.63;;;3.20;;
64595;SDS011;51003;51.628;6.670;2023-04-20T05:18:19;3.30;;;2.93;;
64595;SDS011;51003;51.628;6.670;2023-04-20T05:20:44;2.73;;;2.20;;
64595;SDS011;51003;51.628;6.670;2023-04-20T05:23:10;4.13;;;3.10;;
64595;SDS011;51003;51.628;6.670;2023-04-20T05:25:35;3.77;;;2.87;;
64595;SDS011;51003;51.628;6.670;2023-04-20T05:28:02;3.00;;;2.73;;
64595;SDS011;51003;51.628;6.670;2023-04-20T05:30:28;4.50;;;3.40;;
64595;SDS011;51003;51.628;6.670;2023-04-20T05:32:53;4.50;;;2.77;;
64595;SDS011;51003;51.628;6.670;2023-04-20T05:35:19;6.10;;;3.20;;
64595;SDS011;51003;51.628;6.670;2023-04-20T05:37:45;4.60;;;3.20;;
64595;SDS011;51003;51.628;6.670;2023-04-20T05:40:11;4.17;;;2.90;;
64595;SDS011;51003;51.628;6.670;2023-04-20T05:42:37;3.80;;;2.73;;
64595;SDS011;51003;51.628;6.670;2023-04-20T05:45:04;4.67;;;2.90;;
64595;SDS011;51003;51.628;6.670;2023-04-20T05:47:29;3.10;;;2.63;;
64595;SDS011;51003;51.628;6.670;2023-04-20T05:49:55;2.93;;;2.63;;
64595;SDS011;51003;51.628;6.670;2023-04-20T05:52:21;4.63;;;3.30;;
64595;SDS011;51003;51.628;6.670;2023-04-20T05:54:47;4.60;;;3.00;;
64595;SDS011;51003;51.628;6.670;2023-04-20T05:57:13;5.07;;;3.30;;
64595;SDS011;51003;51.628;6.670;2023-04-20T05:59:39;3.20;;;2.67;;
64595;SDS011;51003;51.628;6.670;2023-04-20T06:02:05;3.23;;;2.93;;
64595;SDS011;51003;51.628;6.670;2023-04-20T06:04:30;5.17;;;3.20;;
64595;SDS011;51003;51.628;6.670;2023-04-20T06:06:56;3.10;;;2.70;;
64595;SDS011;51003;51.628;6.670;2023-04-20T06:09:24;5.03;;;2.50;;
64595;SDS011;51003;51.628;6.670;2023-04-20T06:11:50;3.10;;;2.80;;
64595;SDS011;51003;51.628;6.670;2023-04-20T06:14:15;4.10;;;2.93;;
64595;SDS011;51003;51.628;6.670;2023-04-20T06:16:40;3.47;;;3.17;;
64595;SDS011;51003;51.628;6.670;2023-04-20T06:19:06;7.03;;;3.10;;
64595;SDS011;51003;51.628;6.670;2023-04-20T06:21:32;3.27;;;2.97;;
64595;SDS011;51003;51.628;6.670;2023-04-20T06:23:58;3.13;;;2.80;;
64595;SDS011;51003;51.628;6.670;2023-04-20T06:26:24;4.87;;;3.40;;
64595;SDS011;51003;51.628;6.670;2023-04-20T06:28:50;3.30;;;3.00;;
64595;SDS011;51003;51.628;6.670;2023-04-20T06:31:17;3.70;;;2.97;;
64595;SDS011;51003;51.628;6.670;2023-04-20T06:33:43;3.10;;;2.80;;
64595;SDS011;51003;51.628;6.670;2023-04-20T06:36:09;5.40;;;3.00;;
64595;SDS011;51003;51.628;6.670;2023-04-20T06:38:34;4.37;;;2.90;;
64595;SDS011;51003;51.628;6.670;2023-04-20T06:41:00;3.63;;;3.30;;
64595;SDS011;51003;51.628;6.670;2023-04-20T06:43:29;3.57;;;3.03;;
64595;SDS011;51003;51.628;6.670;2023-04-20T06:45:55;4.30;;;3.10;;
64595;SDS011;51003;51.628;6.670;2023-04-20T06:48:21;4.13;;;3.57;;
64595;SDS011;51003;51.628;6.670;2023-04-20T06:50:47;4.07;;;2.97;;
64595;SDS011;51003;51.628;6.670;2023-04-20T06:53:13;3.23;;;2.93;;
64595;SDS011;51003;51.628;6.670;2023-04-20T06:55:39;4.43;;;2.93;;
64595;SDS011;51003;51.628;6.670;2023-04-20T06:58:05;5.30;;;2.80;;
64595;SDS011;51003;51.628;6.670;2023-04-20T07:00:30;3.23;;;2.93;;
64595;SDS011;51003;51.628;6.670;2023-04-20T07:02:56;2.90;;;2.70;;
64595;SDS011;51003;51.628;6.670;2023-04-20T07:05:22;4.27;;;3.50;;
64595;SDS011;51003;51.628;6.670;2023-04-20T07:07:47;4.27;;;2.80;;
64595;SDS011;51003;51.628;6.670;2023-04-20T07:10:13;3.23;;;2.93;;
64595;SDS011;51003;51.628;6.670;2023-04-20T07:12:39;3.67;;;3.27;;
64595;SDS011;51003;51.628;6.670;2023-04-20T07:15:05;5.00;;;3.10;;
64595;SDS011;51003;51.628;6.670;2023-04-20T07:17:33;3.10;;;2.77;;
64595;SDS011;51003;51.628;6.670;2023-04-20T07:19:59;3.60;;;2.97;;
64595;SDS011;51003;51.628;6.670;2023-04-20T07:22:35;5.23;;;3.30;;
64595;SDS011;51003;51.628;6.670;2023-04-20T07:25:04;3.50;;;3.20;;
64595;SDS011;51003;51.628;6.670;2023-04-20T07:27:35;3.93;;;3.03;;
64595;SDS011;51003;51.628;6.670;2023-04-20T07:30:01;4.00;;;3.07;;
64595;SDS011;51003;51.628;6.670;2023-04-20T07:32:27;3.77;;;3.30;;
64595;SDS011;51003;51.628;6.670;2023-04-20T07:34:53;3.50;;;3.17;;
64595;SDS011;51003;51.628;6.670;2023-04-20T07:37:18;4.60;;;3.40;;
64595;SDS011;51003;51.628;6.670;2023-04-20T07:39:44;4.33;;;3.13;;
64595;SDS011;51003;51.628;6.670;2023-04-20T07:42:09;2.87;;;2.60;;
64595;SDS011;51003;51.628;6.670;2023-04-20T07:44:35;3.13;;;2.70;;
64595;SDS011;51003;51.628;6.670;2023-04-20T07:47:01;3.50;;;3.20;;
64595;SDS011;51003;51.628;6.670;2023-04-20T07:49:27;3.10;;;2.80;;
64595;SDS011;51003;51.628;6.670;2023-04-20T07:51:52;3.00;;;2.70;;
64595;SDS011;51003;51.628;6.670;2023-04-20T07:54:18;3.20;;;2.90;;
64595;SDS011;51003;51.628;6.670;2023-04-20T07:56:44;4.63;;;3.37;;
64595;SDS011;51003;51.628;6.670;2023-04-20T07:59:09;4.57;;;2.67;;
64595;SDS011;51003;51.628;6.670;2023-04-20T08:01:35;2.83;;;2.60;;
64595;SDS011;51003;51.628;6.670;2023-04-20T08:04:01;8.50;;;2.90;;
64595;SDS011;51003;51.628;6.670;2023-04-20T08:06:27;3.80;;;2.97;;
64595;SDS011;51003;51.628;6.670;2023-04-20T08:08:52;3.20;;;2.90;;
64595;SDS011;51003;51.628;6.670;2023-04-20T08:11:18;4.97;;;3.13;;
64595;SDS011;51003;51.628;6.670;2023-04-20T08:13:45;2.90;;;2.70;;
64595;SDS011;51003;51.628;6.670;2023-04-20T08:16:10;5.73;;;3.37;;
64595;SDS011;51003;51.628;6.670;2023-04-20T08:18:36;3.93;;;2.63;;
64595;SDS011;51003;51.628;6.670;2023-04-20T08:21:02;4.73;;;2.93;;
64595;SDS011;51003;51.628;6.670;2023-04-20T08:23:28;4.53;;;3.00;;
64595;SDS011;51003;51.628;6.670;2023-04-20T08:25:53;3.70;;;3.10;;
64595;SDS011;51003;51.628;6.670;2023-04-20T08:28:20;3.50;;;3.13;;
64595;SDS011;51003;51.628;6.670;2023-04-20T08:30:47;3.47;;;3.17;;
64595;SDS011;51003;51.628;6.670;2023-04-20T08:33:12;3.53;;;3.23;;
64595;SDS011;51003;51.628;6.670;2023-04-20T08:35:37;3.50;;;3.20;;
64595;SDS011;51003;51.628;6.670;2023-04-20T08:38:03;3.50;;;3.03;;
64595;SDS011;51003;51.628;6.670;2023-04-20T08:40:30;3.33;;;2.93;;
64595;SDS011;51003;51.628;6.670;2023-04-20T08:42:56;3.40;;;3.10;;
64595;SDS011;51003;51.628;6.670;2023-04-20T08:45:23;3.37;;;2.87;;
64595;SDS011;51003;51.628;6.670;2023-04-20T08:47:50;5.20;;;3.00;;
64595;SDS011;51003;51.628;6.670;2023-04-20T08:50:16;4.00;;;3.33;;
64595;SDS011;51003;51.628;6.670;2023-04-20T08:52:43;3.53;;;3.20;;
64595;SDS011;51003;51.628;6.670;2023-04-20T08:55:09;5.03;;;3.60;;
64595;SDS011;51003;51.628;6.670;2023-04-20T08:57:40;3.37;;;3.07;;
64595;SDS011;51003;51.628;6.670;2023-04-20T09:00:06;4.13;;;3.73;;
64595;SDS011;51003;51.628;6.670;2023-04-20T09:02:35;3.33;;;3.00;;
64595;SDS011;51003;51.628;6.670;2023-04-20T09:05:01;4.57;;;3.27;;
64595;SDS011;51003;51.628;6.670;2023-04-20T09:07:28;3.90;;;3.30;;
64595;SDS011;51003;51.628;6.670;2023-04-20T09:09:54;4.63;;;3.33;;
64595;SDS011;51003;51.628;6.670;2023-04-20T09:12:23;5.17;;;3.73;;
64595;SDS011;51003;51.628;6.670;2023-04-20T09:14:49;4.63;;;3.50;;
64595;SDS011;51003;51.628;6.670;2023-04-20T09:17:15;3.63;;;3.23;;
64595;SDS011;51003;51.628;6.670;2023-04-20T09:19:45;5.20;;;3.53;;
64595;SDS011;51003;51.628;6.670;2023-04-20T09:22:28;5.67;;;3.47;;
64595;SDS011;51003;51.628;6.670;2023-04-20T09:24:57;3.73;;;3.37;;
64595;SDS011;51003;51.628;6.670;2023-04-20T09:27:22;5.63;;;3.67;;
64595;SDS011;51003;51.628;6.670;2023-04-20T09:29:59;4.00;;;3.30;;
64595;SDS011;51003;51.628;6.670;2023-04-20T09:32:27;4.80;;;3.80;;
64595;SDS011;51003;51.628;6.670;2023-04-20T09:34:52;4.97;;;3.60;;
64595;SDS011;51003;51.628;6.670;2023-04-20T09:37:18;4.60;;;3.67;;
64595;SDS011;51003;51.628;6.670;2023-04-20T09:39:44;7.10;;;4.37;;
64595;SDS011;51003;51.628;6.670;2023-04-20T09:42:11;5.30;;;4.13;;
64595;SDS011;51003;51.628;6.670;2023-04-20T09:44:37;7.07;;;3.90;;
64595;SDS011;51003;51.628;6.670;2023-04-20T09:47:03;5.63;;;4.33;;
64595;SDS011;51003;51.628;6.670;2023-04-20T09:49:29;7.50;;;3.80;;
64595;SDS011;51003;51.628;6.670;2023-04-20T09:51:55;4.10;;;3.70;;
64595;SDS011;51003;51.628;6.670;2023-04-20T09:54:22;5.67;;;4.00;;
64595;SDS011;51003;51.628;6.670;2023-04-20T09:56:48;5.80;;;4.47;;
64595;SDS011;51003;51.628;6.670;2023-04-20T09:59:13;5.97;;;4.00;;
64595;SDS011;51003;51.628;6.670;2023-04-20T10:01:41;6.73;;;4.10;;
64595;SDS011;51003;51.628;6.670;2023-04-20T10:04:07;3.60;;;3.30;;
64595;SDS011;51003;51.628;6.670;2023-04-20T10:06:34;5.50;;;4.00;;
64595;SDS011;51003;51.628;6.670;2023-04-20T10:09:01;6.40;;;4.30;;
64595;SDS011;51003;51.628;6.670;2023-04-20T10:13:53;6.23;;;3.90;;
64595;SDS011;51003;51.628;6.670;2023-04-20T10:16:19;6.13;;;4.20;;
64595;SDS011;51003;51.628;6.670;2023-04-20T10:18:58;5.53;;;4.30;;
64595;SDS011;51003;51.628;6.670;2023-04-20T10:21:26;4.77;;;3.97;;
64595;SDS011;51003;51.628;6.670;2023-04-20T10:23:53;4.63;;;4.00;;
64595;SDS011;51003;51.628;6.670;2023-04-20T10:26:19;5.40;;;3.97;;
64595;SDS011;51003;51.628;6.670;2023-04-20T10:28:45;9.10;;;4.80;;
64595;SDS011;51003;51.628;6.670;2023-04-20T10:31:11;7.80;;;4.50;;
64595;SDS011;51003;51.628;6.670;2023-04-20T10:33:47;6.03;;;4.13;;
64595;SDS011;51003;51.628;6.670;2023-04-20T10:36:21;7.43;;;4.77;;
64595;SDS011;51003;51.628;6.670;2023-04-20T10:38:47;6.37;;;4.80;;
64595;SDS011;51003;51.628;6.670;2023-04-20T10:41:12;6.10;;;4.40;;
64595;SDS011;51003;51.628;6.670;2023-04-20T10:43:38;5.23;;;4.60;;
64595;SDS011;51003;51.628;6.670;2023-04-20T10:46:14;5.10;;;4.40;;
64595;SDS011;51003;51.628;6.670;2023-04-20T10:51:21;5.70;;;4.97;;
64595;SDS011;51003;51.628;6.670;2023-04-20T10:54:06;5.80;;;5.17;;
64595;SDS011;51003;51.628;6.670;2023-04-20T10:56:50;6.83;;;5.40;;
64595;SDS011;51003;51.628;6.670;2023-04-20T10:59:17;6.13;;;4.60;;
64595;SDS011;51003;51.628;6.670;2023-04-20T11:01:43;4.50;;;4.10;;
64595;SDS011;51003;51.628;6.670;2023-04-20T11:04:09;5.00;;;4.40;;
64595;SDS011;51003;51.628;6.670;2023-04-20T11:06:39;6.97;;;4.73;;
64595;SDS011;51003;51.628;6.670;2023-04-20T11:09:22;6.47;;;5.00;;
64595;SDS011;51003;51.628;6.670;2023-04-20T11:12:00;4.50;;;4.10;;
64595;SDS011;51003;51.628;6.670;2023-04-20T11:14:29;7.23;;;4.40;;
64595;SDS011;51003;51.628;6.670;2023-04-20T11:16:56;5.00;;;4.40;;
64595;SDS011;51003;51.628;6.670;2023-04-20T11:19:25;5.00;;;4.50;;
64595;SDS011;51003;51.628;6.670;2023-04-20T11:21:55;4.57;;;4.07;;
64595;SDS011;51003;51.628;6.670;2023-04-20T11:24:22;4.90;;;4.20;;
64595;SDS011;51003;51.628;6.670;2023-04-20T11:26:49;5.43;;;4.50;;
64595;SDS011;51003;51.628;6.670;2023-04-20T11:29:31;5.00;;;4.50;;
64595;SDS011;51003;51.628;6.670;2023-04-20T11:32:04;5.20;;;4.53;;
64595;SDS011;51003;51.628;6.670;2023-04-20T11:34:31;4.60;;;4.13;;
64595;SDS011;51003;51.628;6.670;2023-04-20T11:37:02;4.43;;;3.90;;
64595;SDS011;51003;51.628;6.670;2023-04-20T11:39:30;6.93;;;4.37;;
64595;SDS011;51003;51.628;6.670;2023-04-20T11:41:56;4.80;;;3.93;;
64595;SDS011;51003;51.628;6.670;2023-04-20T11:44:24;5.20;;;4.20;;
64595;SDS011;51003;51.628;6.670;2023-04-20T11:46:51;5.70;;;4.30;;
64595;SDS011;51003;51.628;6.670;2023-04-20T11:49:21;5.83;;;4.90;;
64595;SDS011;51003;51.628;6.670;2023-04-20T11:51:47;6.50;;;4.93;;
64595;SDS011;51003;51.628;6.670;2023-04-20T11:54:13;9.27;;;4.77;;
64595;SDS011;51003;51.628;6.670;2023-04-20T11:56:39;5.03;;;4.17;;
64595;SDS011;51003;51.628;6.670;2023-04-20T11:59:08;4.63;;;4.03;;
64595;SDS011;51003;51.628;6.670;2023-04-20T12:01:34;4.70;;;4.10;;
64595;SDS011;51003;51.628;6.670;2023-04-20T12:04:00;3.80;;;3.40;;
64595;SDS011;51003;51.628;6.670;2023-04-20T12:06:26;4.10;;;3.70;;
64595;SDS011;51003;51.628;6.670;2023-04-20T12:08:56;3.90;;;3.43;;
64595;SDS011;51003;51.628;6.670;2023-04-20T12:11:21;3.67;;;3.37;;
64595;SDS011;51003;51.628;6.670;2023-04-20T12:13:47;3.80;;;3.43;;
64595;SDS011;51003;51.628;6.670;2023-04-20T12:16:12;4.60;;;4.00;;
64595;SDS011;51003;51.628;6.670;2023-04-20T12:18:38;3.70;;;3.30;;
64595;SDS011;51003;51.628;6.670;2023-04-20T12:21:04;3.83;;;3.53;;
64595;SDS011;51003;51.628;6.670;2023-04-20T12:23:30;5.93;;;3.80;;
64595;SDS011;51003;51.628;6.670;2023-04-20T12:25:57;4.33;;;3.50;;
64595;SDS011;51003;51.628;6.670;2023-04-20T12:28:22;3.97;;;3.60;;
64595;SDS011;51003;51.628;6.670;2023-04-20T12:30:47;5.10;;;4.00;;
64595;SDS011;51003;51.628;6.670;2023-04-20T12:33:13;3.93;;;3.47;;
64595;SDS011;51003;51.628;6.670;2023-04-20T12:35:38;3.93;;;3.50;;
64595;SDS011;51003;51.628;6.670;2023-04-20T12:38:04;5.13;;;4.00;;
64595;SDS011;51003;51.628;6.670;2023-04-20T12:40:29;4.60;;;4.20;;
64595;SDS011;51003;51.628;6.670;2023-04-20T12:42:55;4.53;;;4.13;;
64595;SDS011;51003;51.628;6.670;2023-04-20T12:45:20;5.53;;;4.57;;
64595;SDS011;51003;51.628;6.670;2023-04-20T12:47:46;5.10;;;4.60;;
64595;SDS011;51003;51.628;6.670;2023-04-20T12:50:12;4.77;;;4.27;;
64595;SDS011;51003;51.628;6.670;2023-04-20T12:52:37;5.00;;;4.50;;
64595;SDS011;51003;51.628;6.670;2023-04-20T12:55:04;5.50;;;4.60;;
64595;SDS011;51003;51.628;6.670;2023-04-20T12:57:31;6.07;;;4.23;;
64595;SDS011;51003;51.628;6.670;2023-04-20T12:59:57;4.57;;;4.23;;
64595;SDS011;51003;51.628;6.670;2023-04-20T13:02:22;4.83;;;4.43;;
64595;SDS011;51003;51.628;6.670;2023-04-20T13:04:48;5.97;;;5.37;;
64595;SDS011;51003;51.628;6.670;2023-04-20T13:07:13;5.73;;;5.23;;
64595;SDS011;51003;51.628;6.670;2023-04-20T13:09:39;5.20;;;4.70;;
64595;SDS011;51003;51.628;6.670;2023-04-20T13:12:05;5.57;;;5.07;;
64595;SDS011;51003;51.628;6.670;2023-04-20T13:14:31;4.83;;;4.40;;
64595;SDS011;51003;51.628;6.670;2023-04-20T13:16:57;5.10;;;4.60;;
64595;SDS011;51003;51.628;6.670;2023-04-20T13:19:25;5.57;;;5.07;;
64595;SDS011;51003;51.628;6.670;2023-04-20T13:21:54;5.13;;;4.67;;
64595;SDS011;51003;51.628;6.670;2023-04-20T13:24:19;5.43;;;4.93;;
64595;SDS011;51003;51.628;6.670;2023-04-20T13:26:45;5.17;;;4.67;;
64595;SDS011;51003;51.628;6.670;2023-04-20T13:29:10;4.90;;;4.50;;
64595;SDS011;51003;51.628;6.670;2023-04-20T13:31:36;6.10;;;5.50;;
64595;SDS011;51003;51.628;6.670;2023-04-20T13:34:02;6.20;;;5.20;;
64595;SDS011;51003;51.628;6.670;2023-04-20T13:36:27;6.50;;;5.57;;
64595;SDS011;51003;51.628;6.670;2023-04-20T13:38:53;6.60;;;5.20;;
64595;SDS011;51003;51.628;6.670;2023-04-20T13:41:19;13.70;;;5.67;;
64595;SDS011;51003;51.628;6.670;2023-04-20T13:43:47;7.97;;;5.60;;
64595;SDS011;51003;51.628;6.670;2023-04-20T13:46:13;7.70;;;5.90;;
64595;SDS011;51003;51.628;6.670;2023-04-20T13:48:39;9.87;;;5.27;;
64595;SDS011;51003;51.628;6.670;2023-04-20T13:51:05;6.33;;;5.53;;
64595;SDS011;51003;51.628;6.670;2023-04-20T13:53:31;6.40;;;5.80;;
64595;SDS011;51003;51.628;6.670;2023-04-20T13:55:56;6.30;;;5.53;;
64595;SDS011;51003;51.628;6.670;2023-04-20T13:58:21;8.40;;;6.33;;
64595;SDS011;51003;51.628;6.670;2023-04-20T14:00:47;6.33;;;5.50;;
64595;SDS011;51003;51.628;6.670;2023-04-20T14:03:12;6.07;;;5.47;;
64595;SDS011;51003;51.628;6.670;2023-04-20T14:05:39;7.33;;;6.03;;
64595;SDS011;51003;51.628;6.670;2023-04-20T14:08:04;8.67;;;6.30;;
64595;SDS011;51003;51.628;6.670;2023-04-20T14:10:31;6.90;;;5.10;;
64595;SDS011;51003;51.628;6.670;2023-04-20T14:12:57;5.87;;;5.33;;
64595;SDS011;51003;51.628;6.670;2023-04-20T14:15:22;6.03;;;5.30;;
64595;SDS011;51003;51.628;6.670;2023-04-20T14:17:48;5.57;;;5.07;;
64595;SDS011;51003;51.628;6.670;2023-04-20T14:20:13;5.80;;;5.20;;
64595;SDS011;51003;51.628;6.670;2023-04-20T14:22:39;6.10;;;5.33;;
64595;SDS011;51003;51.628;6.670;2023-04-20T14:25:07;8.90;;;5.43;;
64595;SDS011;51003;51.628;6.670;2023-04-20T14:27:34;5.17;;;4.67;;
64595;SDS011;51003;51.628;6.670;2023-04-20T14:30:00;7.93;;;5.10;;
64595;SDS011;51003;51.628;6.670;2023-04-20T14:32:26;6.27;;;5.67;;
64595;SDS011;51003;51.628;6.670;2023-04-20T14:34:51;5.93;;;5.33;;
64595;SDS011;51003;51.628;6.670;2023-04-20T14:37:17;9.47;;;6.10;;
64595;SDS011;51003;51.628;6.670;2023-04-20T14:39:43;5.77;;;5.07;;
64595;SDS011;51003;51.628;6.670;2023-04-20T14:42:08;5.20;;;4.67;;
64595;SDS011;51003;51.628;6.670;2023-04-20T14:44:34;5.00;;;4.23;;
64595;SDS011;51003;51.628;6.670;2023-04-20T14:47:00;5.33;;;4.57;;
64595;SDS011;51003;51.628;6.670;2023-04-20T14:49:27;5.53;;;5.03;;